CPX12 Details

Departure: Ted Stevens Anchorage International Airport (PANC)
Arrival: Chek Lap Kok International (VHHH)
Route: NODLE R220 NANZA R220 NANAC R220 IXE Y88 NAKTU Y12 KEC Y24 KOSHI A1 BULAN A1 ELATO V522 ABBEY


Current Weather Information
PANC 251053Z 00000KT 10SM FEW070 07/04 A3014 RMK AO2 SLP207 T00670044
VHHH 251100Z 11010KT 080V220 9999 FEW015 SCT022 29/24 Q1007 NOSIG